Data for 08/24/2014

Time Sea-Level Adjusted Pressure Absolute Pressure Temperature Relative Humidity Dew Point   
(mb) (inHg) (mb) (inHg) (C) (F) (%) (C) (F)
00:05 1022 30.18 851 25.13 6.4 43.5 92 5.2 41.4
00:10 1022 30.18 851 25.13 6.4 43.6 92 5.2 41.4
00:15 1022 30.18 851 25.13 6.4 43.5 92 5.2 41.3
00:20 1022 30.18 851 25.13 6.4 43.4 92 5.1 41.2
00:25 1022 30.18 851 25.13 6.4 43.4 92 5.1 41.3
00:30 1022 30.18 851 25.13 6.3 43.4 92 5.1 41.2
00:35 1022 30.18 851 25.13 6.3 43.4 92 5.1 41.2
00:40 1022 30.18 851 25.13 6.3 43.4 92 5.1 41.2
00:45 1021 30.15 851 25.13 6.3 43.4 92 5.1 41.3
00:50 1021 30.15 851 25.13 6.3 43.4 92 5.1 41.3
00:55 1021 30.15 851 25.13 6.3 43.3 92 5.1 41.2
01:00 1021 30.15 851 25.13 6.3 43.3 92 5.1 41.2
01:05 1021 30.15 851 25.13 6.3 43.3 92 5.1 41.2
01:10 1021 30.15 851 25.13 6.3 43.3 92 5.1 41.2
01:15 1021 30.15 851 25.13 6.3 43.3 92 5 41
01:20 1021 30.15 850 25.1 6.3 43.3 92 5 41
01:25 1021 30.15 850 25.1 6.3 43.4 91 5 41
01:30 1021 30.15 850 25.1 6.3 43.3 91 4.9 40.8
01:35 1021 30.15 850 25.1 6.3 43.4 91 5 41
01:40 1021 30.15 850 25.1 6.3 43.4 91 5 41
01:45 1021 30.15 850 25.1 6.3 43.3 90 4.7 40.5
01:50 1021 30.15 850 25.1 6.3 43.3 90 4.7 40.4
01:55 1021 30.15 850 25.1 6.2 43.2 90 4.6 40.3
02:00 1021 30.15 850 25.1 6.2 43.1 90 4.7 40.4
02:05 1021 30.15 850 25.1 6.1 43.1 90 4.6 40.3
02:10 1021 30.15 850 25.1 6.1 43 90 4.6 40.2
02:15 1021 30.15 850 25.1 6.1 42.9 90 4.5 40.1
02:20 1021 30.15 850 25.1 6.1 42.9 90 4.6 40.2
02:25 1021 30.15 850 25.1 6 42.8 90 4.5 40.2
02:30 1021 30.15 850 25.1 6 42.8 90 4.5 40.2
02:35 1021 30.15 850 25.1 5.9 42.7 91 4.5 40.1
02:40 1021 30.15 850 25.1 5.9 42.7 90 4.4 40
02:45 1021 30.15 850 25.1 5.9 42.6 91 4.5 40.1
02:50 1021 30.15 850 25.1 5.9 42.5 91 4.6 40.2
02:55 1021 30.15 850 25.1 5.8 42.5 91 4.5 40.1
03:00 1021 30.15 850 25.1 5.8 42.5 91 4.5 40.1
03:05 1021 30.15 850 25.1 5.8 42.4 92 4.5 40.1
03:10 1021 30.15 850 25.1 5.8 42.4 91 4.4 39.9
03:15 1021 30.15 850 25.1 5.8 42.4 91 4.4 39.9
03:20 1021 30.15 850 25.1 5.7 42.3 91 4.3 39.8
03:25 1021 30.15 850 25.1 5.7 42.3 91 4.4 39.9
03:30 1021 30.15 850 25.1 5.7 42.3 92 4.5 40.1
03:35 1021 30.15 850 25.1 5.7 42.3 92 4.6 40.3
03:40 1021 30.15 850 25.1 5.7 42.3 93 4.6 40.4
03:45 1021 30.15 850 25.1 5.7 42.3 93 4.6 40.3
03:50 1021 30.15 850 25.1 5.7 42.2 93 4.6 40.2
03:55 1021 30.15 850 25.1 5.7 42.2 93 4.6 40.2
04:00 1021 30.15 850 25.1 5.6 42.1 93 4.5 40.1
04:05 1021 30.15 850 25.1 5.6 42.1 93 4.6 40.2
04:10 1021 30.15 850 25.1 5.3 41.5 91 4 39.2
04:15 1021 30.15 850 25.1 5.1 41.2 92 3.9 39
04:20 1021 30.15 850 25.1 5.1 41.1 92 3.9 39
04:25 1021 30.15 850 25.1 5.1 41.2 92 4 39.2
04:30 1021 30.15 850 25.1 5.2 41.4 93 4.1 39.4
04:35 1021 30.15 850 25.1 5.2 41.3 92 4.1 39.3
04:40 1021 30.15 850 25.1 5.2 41.4 92 4.1 39.3
04:45 1021 30.15 850 25.1 5.2 41.4 93 4.1 39.4
04:50 1021 30.15 850 25.1 5.2 41.4 92 4.1 39.4
04:55 1021 30.15 850 25.1 5.2 41.4 92 4.1 39.4
05:00 1021 30.15 850 25.1 5.2 41.4 93 4.1 39.4
05:05 1021 30.15 850 25.1 5.3 41.5 93 4.2 39.5
05:10 1021 30.15 850 25.1 5.3 41.5 92 4.2 39.5
05:15 1021 30.15 850 25.1 5.3 41.5 92 4.1 39.5
05:20 1021 30.15 850 25.1 5.3 41.5 92 4.1 39.4
05:25 1021 30.15 850 25.1 5.3 41.6 92 4.1 39.5
05:30 1021 30.15 850 25.1 5.3 41.6 92 4.2 39.5
05:35 1021 30.15 850 25.1 5.3 41.6 92 4.2 39.5
05:40 1021 30.15 850 25.1 5.3 41.5 92 4.1 39.4
05:45 1021 30.15 850 25.1 5.3 41.6 92 4.1 39.4
05:50 1021 30.15 850 25.1 5.3 41.5 92 4.1 39.5
05:55 1021 30.15 850 25.1 5.3 41.6 92 4.2 39.6
06:00 1021 30.15 850 25.1 5.3 41.6 92 4.2 39.5
06:05 1021 30.15 850 25.1 5.3 41.6 92 4.2 39.6
06:10 1021 30.15 850 25.1 5.3 41.6 93 4.3 39.7
06:15 1021 30.15 850 25.1 5.4 41.7 93 4.3 39.7
06:20 1021 30.15 850 25.1 5.4 41.7 92 4.2 39.6
06:25 1021 30.15 850 25.1 5.5 41.8 92 4.3 39.7
06:30 1021 30.15 850 25.1 5.5 41.9 92 4.2 39.6
06:35 1021 30.15 850 25.1 5.6 42 92 4.3 39.8
06:40 1021 30.15 850 25.1 5.6 42.2 91 4.3 39.7
06:45 1021 30.15 850 25.1 5.7 42.2 90 4.1 39.4
06:50 1021 30.15 850 25.1 5.7 42.2 90 4.1 39.4
06:55 1021 30.15 850 25.1 5.8 42.4 89 4.1 39.4
07:00 1021 30.15 850 25.1 5.8 42.4 90 4.3 39.7
07:05 1021 30.15 850 25.1 5.9 42.6 90 4.4 40
07:10 1021 30.15 850 25.1 5.9 42.6 91 4.5 40.1
07:15 1021 30.15 850 25.1 5.9 42.7 91 4.5 40.2
07:20 1021 30.15 850 25.1 6 42.7 91 4.6 40.2
07:25 1021 30.15 850 25.1 6 42.9 90 4.6 40.3
07:30 1021 30.15 850 25.1 6.1 43 90 4.6 40.4
07:35 1021 30.15 850 25.1 6.2 43.2 91 4.8 40.6
07:40 1021 30.15 850 25.1 6.3 43.3 91 4.9 40.7
07:45 1021 30.15 850 25.1 6.3 43.4 90 4.8 40.7
07:50 1021 30.15 850 25.1 6.4 43.5 89 4.7 40.5
07:55 1021 30.15 850 25.1 6.4 43.6 86 4.2 39.6
08:00 1021 30.15 850 25.1 6.5 43.7 85 4.1 39.4
08:05 1021 30.15 850 25.1 6.6 43.8 86 4.4 39.9
08:10 1021 30.15 850 25.1 6.6 43.8 85 4.2 39.6
08:15 1021 30.15 850 25.1 6.6 43.8 85 4.3 39.7
08:20 1021 30.15 850 25.1 6.7 44 86 4.5 40.1
08:25 1021 30.15 850 25.1 6.9 44.4 86 4.7 40.5
08:30 1021 30.15 850 25.1 7 44.6 85 4.6 40.3
08:35 1021 30.15 850 25.1 7.1 44.8 85 4.7 40.4
08:40 1021 30.15 850 25.1 7.2 45 84 4.7 40.4
08:45 1021 30.15 850 25.1 7.2 45 83 4.6 40.2
08:50 1021 30.15 850 25.1 7.3 45.1 84 4.7 40.5
08:55 1021 30.15 850 25.1 7.3 45.1 85 4.9 40.8
09:00 1021 30.15 850 25.1 7.3 45.1 83 4.6 40.3
09:05 1021 30.15 850 25.1 7.3 45.2 85 4.9 40.8
09:10 1021 30.15 850 25.1 7 44.6 86 4.8 40.6
09:15 1021 30.15 850 25.1 6.8 44.2 87 4.8 40.7
09:20 1021 30.15 850 25.1 7 44.6 85 4.6 40.3
09:25 1021 30.15 850 25.1 7.3 45.1 84 4.8 40.7
09:30 1021 30.15 850 25.1 7.5 45.6 84 5.1 41.1
09:35 1021 30.15 850 25.1 7.7 45.8 84 5.2 41.4
09:40 1021 30.15 851 25.13 7.8 46 83 5 41.1
09:45 1021 30.15 851 25.13 7.8 46 84 5.2 41.3
09:50 1021 30.15 851 25.13 7.8 46.1 84 5.3 41.5
09:55 1021 30.15 850 25.1 8 46.3 82 5.1 41.1
10:00 1021 30.15 851 25.13 8 46.4 80 4.7 40.5
10:05 1021 30.15 851 25.13 8 46.4 84 5.5 41.8
10:10 1021 30.15 851 25.13 7.9 46.2 86 5.7 42.2
10:15 1021 30.15 851 25.13 7.9 46.1 86 5.7 42.3
10:20 1021 30.15 851 25.13 8 46.4 86 5.8 42.5
10:25 1021 30.15 851 25.13 8.3 46.9 86 6.1 43
10:30 1021 30.15 851 25.13 8.4 47.1 85 6.1 42.9
10:35 1021 30.15 851 25.13 8.5 47.2 84 6 42.8
10:40 1022 30.18 851 25.13 8.5 47.2 84 5.8 42.5
10:45 1022 30.18 851 25.13 8.4 47.2 85 6 42.8
10:50 1022 30.18 851 25.13 8.5 47.3 85 6.1 43.1
10:55 1022 30.18 851 25.13 8.5 47.4 85 6.1 43
11:00 1022 30.18 851 25.13 8.6 47.5 85 6.2 43.1
11:05 1022 30.18 851 25.13 8.5 47.3 84 6 42.8
11:10 1022 30.18 851 25.13 8.4 47.1 86 6.1 43
11:15 1022 30.18 851 25.13 8.5 47.3 85 6.1 43
11:20 1022 30.18 851 25.13 9 48.2 81 5.9 42.7
11:25 1022 30.18 851 25.13 9.3 48.7 82 6.3 43.4
11:30 1022 30.18 851 25.13 9.8 49.6 77 6 42.8
11:35 1022 30.18 851 25.13 10.1 50.2 75 6 42.8
11:40 1022 30.18 851 25.13 10.4 50.7 74 5.9 42.7
11:45 1022 30.18 851 25.13 10.6 51 71 5.6 42
11:50 1021 30.15 851 25.13 10.8 51.4 70 5.5 41.9
11:55 1021 30.15 851 25.13 11.2 52.2 68 5.7 42.2
12:00 1021 30.15 851 25.13 11.8 53.3 66 5.6 42.2
12:05 1021 30.15 851 25.13 11.6 53 68 6 42.8
12:10 1021 30.15 851 25.13 11.5 52.7 67 5.6 42
12:15 1021 30.15 850 25.1 11.4 52.6 66 5.5 41.8
12:20 1021 30.15 850 25.1 11.3 52.3 66 5.2 41.4
12:25 1021 30.15 850 25.1 11.2 52.1 68 5.4 41.8
12:30 1021 30.15 850 25.1 11.4 52.4 65 5.2 41.3
12:35 1021 30.15 850 25.1 11.4 52.5 66 5.4 41.6
12:40 1021 30.15 850 25.1 11.5 52.7 68 5.8 42.5
12:45 1021 30.15 850 25.1 11 51.8 71 6.1 42.9
12:50 1021 30.15 850 25.1 10.7 51.3 73 6.1 42.9
12:55 1021 30.15 850 25.1 11 51.8 72 6.1 43.1
13:00 1021 30.15 850 25.1 10.8 51.5 74 6.4 43.6
13:05 1021 30.15 850 25.1 10.5 50.8 77 6.6 43.9
13:10 1021 30.15 850 25.1 10.3 50.6 78 6.7 44.1
13:15 1021 30.15 850 25.1 10.2 50.3 77 6.4 43.6
13:20 1021 30.15 850 25.1 10 49.9 79 6.6 43.9
13:25 1021 30.15 850 25.1 10.2 50.3 77 6.4 43.4
13:30 1021 30.15 850 25.1 10.6 51.1 76 6.7 44
13:35 1021 30.15 850 25.1 10.6 51.1 76 6.6 43.8
13:40 1021 30.15 850 25.1 10.7 51.2 73 6.1 42.9
13:45 1021 30.15 850 25.1 10.7 51.3 73 6.1 43
13:50 1021 30.15 850 25.1 10.4 50.7 77 6.6 43.8
13:55 1021 30.15 851 25.13 10 50 78 6.3 43.4
14:00 1021 30.15 850 25.1 9.7 49.4 79 6.1 43
14:05 1021 30.15 851 25.13 9.6 49.3 78 6.1 42.9
14:10 1021 30.15 851 25.13 9.9 49.8 79 6.5 43.6
14:15 1021 30.15 851 25.13 10.1 50.1 77 6.3 43.3
14:20 1021 30.15 851 25.13 10.2 50.4 75 6 42.9
14:25 1021 30.15 851 25.13 10.1 50.1 74 5.7 42.2
14:30 1021 30.15 851 25.13 10.2 50.4 73 5.7 42.2
14:35 1021 30.15 850 25.1 10.3 50.5 72 5.4 41.7
14:40 1021 30.15 850 25.1 10.2 50.4 72 5.4 41.8
14:45 1021 30.15 851 25.13 10.2 50.4 73 5.5 42
14:50 1021 30.15 851 25.13 10.4 50.7 73 5.8 42.4
14:55 1021 30.15 851 25.13 10.6 51.1 72 5.8 42.5
15:00 1021 30.15 851 25.13 10.5 51 71 5.6 42.1
15:05 1021 30.15 851 25.13 10.6 51.1 72 5.8 42.4
15:10 1021 30.15 851 25.13 11 51.8 68 5.4 41.8
15:15 1021 30.15 851 25.13 11.3 52.3 68 5.6 42.1
15:20 1021 30.15 851 25.13 11.7 53 66 5.5 41.8
15:25 1021 30.15 851 25.13 11.8 53.3 66 5.8 42.5
15:30 1021 30.15 851 25.13 11.9 53.3 67 6 42.8
15:35 1021 30.15 851 25.13 11.8 53.2 67 6 42.8
15:40 1021 30.15 851 25.13 11.7 53 67 5.7 42.2
15:45 1021 30.15 851 25.13 11.7 53 68 5.9 42.6
15:50 1021 30.15 851 25.13 11.3 52.3 67 5.5 41.8
15:55 1021 30.15 851 25.13 11.3 52.4 67 5.4 41.7
16:00 1021 30.15 851 25.13 11.7 53.1 66 5.6 42.1
16:05 1021 30.15 851 25.13 11.9 53.5 66 5.8 42.5
16:10 1021 30.15 851 25.13 11.9 53.4 65 5.6 42
16:15 1021 30.15 851 25.13 11.8 53.2 67 5.8 42.5
16:20 1021 30.15 851 25.13 11.6 53 65 5.4 41.8
16:25 1021 30.15 851 25.13 12.1 53.7 65 5.7 42.3
16:30 1021 30.15 851 25.13 11.7 53.1 67 5.8 42.5
16:35 1021 30.15 851 25.13 11.6 52.8 66 5.5 41.8
16:40 1021 30.15 851 25.13 11.5 52.7 64 4.9 40.9
16:45 1022 30.18 851 25.13 11.3 52.3 65 5 41
16:50 1022 30.18 851 25.13 11.5 52.6 64 4.9 40.8
16:55 1021 30.15 851 25.13 11.6 52.8 64 5.1 41.1
17:00 1021 30.15 851 25.13 11.7 53 65 5.3 41.6
17:05 1021 30.15 851 25.13 11.6 52.9 64 5.2 41.4
17:10 1021 30.15 851 25.13 11.4 52.6 64 4.9 40.8
17:15 1021 30.15 851 25.13 11.3 52.3 66 5.1 41.2
17:20 1021 30.15 851 25.13 11.4 52.5 63 4.6 40.2
17:25 1021 30.15 851 25.13 11.3 52.3 64 4.7 40.5
17:30 1022 30.18 851 25.13 11.1 52 64 4.5 40.2
17:35 1021 30.15 851 25.13 11.2 52.2 63 4.6 40.2
17:40 1022 30.18 851 25.13 11.1 52 63 4.4 39.9
17:45 1021 30.15 851 25.13 11.1 52 63 4.4 39.9
17:50 1021 30.15 851 25.13 11.2 52.1 63 4.5 40.1
17:55 1021 30.15 851 25.13 11.3 52.3 62 4.4 40
18:00 1021 30.15 851 25.13 11.3 52.4 62 4.4 40
18:05 1021 30.15 851 25.13 11.2 52.1 64 4.7 40.4
18:10 1021 30.15 851 25.13 11.1 52 64 4.7 40.5
18:15 1021 30.15 851 25.13 11 51.7 64 4.5 40
18:20 1021 30.15 851 25.13 10.9 51.6 65 4.7 40.5
18:25 1022 30.18 851 25.13 10.9 51.7 65 4.6 40.2
18:30 1022 30.18 851 25.13 10.9 51.6 67 5 41
18:35 1022 30.18 851 25.13 10.9 51.7 65 4.6 40.4
18:40 1022 30.18 851 25.13 11 51.8 67 5.2 41.4
18:45 1022 30.18 851 25.13 11 51.9 64 4.5 40
18:50 1022 30.18 851 25.13 11 51.9 65 4.8 40.6
18:55 1022 30.18 851 25.13 11.1 51.9 68 5.4 41.7
19:00 1022 30.18 851 25.13 11.1 52 65 4.8 40.6
19:05 1022 30.18 851 25.13 11.1 51.9 69 5.7 42.2
19:10 1022 30.18 851 25.13 11 51.7 66 4.9 40.8
19:15 1022 30.18 851 25.13 10.9 51.6 66 4.9 40.9
19:20 1022 30.18 851 25.13 10.9 51.5 64 4.4 39.9
19:25 1022 30.18 851 25.13 10.8 51.5 64 4.3 39.7
19:30 1022 30.18 851 25.13 10.8 51.4 65 4.4 40
19:35 1022 30.18 851 25.13 10.7 51.3 64 4.2 39.6
19:40 1022 30.18 851 25.13 10.7 51.3 70 5.4 41.7
19:45 1022 30.18 851 25.13 10.7 51.3 67 4.9 40.7
19:50 1022 30.18 851 25.13 10.6 51.1 70 5.4 41.7
19:55 1022 30.18 851 25.13 10.5 50.9 72 5.7 42.3
20:00 1022 30.18 851 25.13 10.4 50.7 74 6 42.7
20:05 1022 30.18 851 25.13 10.3 50.6 75 6.1 43
20:10 1022 30.18 851 25.13 10.1 50.2 76 6.2 43.2
20:15 1022 30.18 851 25.13 9.9 49.7 78 6.1 43.1
20:20 1022 30.18 851 25.13 9.7 49.4 79 6.1 43.1
20:25 1022 30.18 851 25.13 9.6 49.2 78 5.9 42.6
20:30 1022 30.18 851 25.13 9.5 49.1 79 6 42.8
20:35 1022 30.18 851 25.13 9.5 49 78 5.9 42.6
20:40 1022 30.18 851 25.13 9.4 49 78 5.7 42.3
20:45 1022 30.18 852 25.16 9.5 49.1 77 5.7 42.3
20:50 1022 30.18 852 25.16 9.4 49 78 5.8 42.4
20:55 1022 30.18 852 25.16 9.4 48.8 78 5.8 42.5
21:00 1022 30.18 852 25.16 9.4 48.8 79 5.9 42.5
21:05 1022 30.18 852 25.16 9.3 48.7 79 5.8 42.4
21:10 1023 30.21 852 25.16 9.3 48.7 80 6 42.9
21:15 1023 30.21 852 25.16 9.3 48.7 81 6.2 43.1
21:20 1023 30.21 852 25.16 9.3 48.7 79 5.8 42.4
21:25 1023 30.21 852 25.16 9.4 48.8 78 5.8 42.4
21:30 1023 30.21 852 25.16 9.3 48.8 79 5.8 42.5
21:35 1023 30.21 852 25.16 9.3 48.7 78 5.7 42.3
21:40 1023 30.21 852 25.16 9.2 48.6 78 5.6 42
21:45 1023 30.21 852 25.16 9.2 48.5 78 5.5 41.9
21:50 1023 30.21 852 25.16 9.1 48.4 78 5.5 41.8
21:55 1023 30.21 852 25.16 9.1 48.3 76 5.1 41.2
22:00 1023 30.21 852 25.16 9 48.3 75 4.9 40.8
22:05 1022 30.18 852 25.16 9 48.3 75 4.9 40.8
22:10 1022 30.18 852 25.16 9 48.2 75 4.8 40.7
22:15 1022 30.18 852 25.16 8.9 48 75 4.7 40.4
22:20 1022 30.18 852 25.16 8.8 47.9 74 4.5 40.1
22:25 1022 30.18 852 25.16 8.7 47.7 74 4.3 39.8
22:30 1022 30.18 852 25.16 8.6 47.5 74 4.2 39.6
22:35 1022 30.18 852 25.16 8.5 47.2 73 4 39.2
22:40 1023 30.21 852 25.16 8.4 47.2 73 3.9 39
22:45 1023 30.21 852 25.16 8.3 47 73 3.8 38.9
22:50 1023 30.21 852 25.16 8.2 46.8 73 3.7 38.7
22:55 1023 30.21 852 25.16 8.3 46.9 73 3.8 38.8
23:00 1023 30.21 852 25.16 8.2 46.7 74 3.8 38.9
23:05 1023 30.21 852 25.16 8.1 46.5 73 3.5 38.2
23:10 1023 30.21 852 25.16 8 46.4 73 3.5 38.3
23:15 1023 30.21 852 25.16 8 46.3 73 3.5 38.4
23:20 1023 30.21 852 25.16 7.9 46.2 74 3.6 38.4
23:25 1023 30.21 852 25.16 7.8 46.1 74 3.4 38.2
23:30 1023 30.21 852 25.16 7.8 46 74 3.4 38.1
23:35 1023 30.21 852 25.16 7.7 45.9 73 3.3 37.9
23:40 1023 30.21 852 25.16 7.8 46 73 3.2 37.8
23:45 1022 30.18 852 25.16 7.8 46 72 3.2 37.7
23:50 1023 30.21 852 25.16 7.8 46 72 3.1 37.5
23:55 1023 30.21 852 25.16 7.7 45.9 72 2.9 37.3
24:00 1023 30.21 852 25.16 7.8 46 71 2.8 37.1